createdAt,value
2019-03-22T00:00:04.350Z,7.47
2019-03-22T00:02:34.496Z,8.30
2019-03-22T00:05:04.698Z,7.90
2019-03-22T00:07:34.790Z,6.67
2019-03-22T00:10:05.368Z,7.40
2019-03-22T00:12:35.722Z,7.37
2019-03-22T00:15:06.412Z,8.13
2019-03-22T00:17:36.962Z,8.17
2019-03-22T00:20:07.263Z,7.97
2019-03-22T00:22:37.414Z,8.07
2019-03-22T00:25:07.535Z,6.43
2019-03-22T00:27:38.053Z,7.47
2019-03-22T00:30:08.276Z,7.13
2019-03-22T00:32:38.449Z,6.97
2019-03-22T00:35:08.681Z,8.23
2019-03-22T00:37:38.752Z,7.30
2019-03-22T00:40:09.173Z,7.10
2019-03-22T00:42:39.333Z,7.00
2019-03-22T00:45:09.514Z,7.37
2019-03-22T00:47:39.600Z,6.83
2019-03-22T00:50:09.694Z,6.67
2019-03-22T00:52:39.842Z,7.57
2019-03-22T00:55:10.493Z,6.97
2019-03-22T00:57:40.620Z,7.27
2019-03-22T01:00:11.030Z,6.20
2019-03-22T01:02:41.196Z,6.97
2019-03-22T01:05:11.538Z,7.80
2019-03-22T01:07:41.624Z,6.50
2019-03-22T01:10:11.836Z,7.60
2019-03-22T01:12:41.995Z,6.60
2019-03-22T01:15:12.141Z,6.63
2019-03-22T01:17:42.493Z,6.67
2019-03-22T01:20:12.620Z,6.20
2019-03-22T01:22:42.732Z,7.00
2019-03-22T01:25:13.123Z,6.80
2019-03-22T01:27:43.285Z,6.70
2019-03-22T01:30:14.273Z,7.27
2019-03-22T01:32:44.378Z,5.97
2019-03-22T01:35:14.493Z,6.63
2019-03-22T01:37:46.237Z,6.50
2019-03-22T01:40:16.565Z,6.77
2019-03-22T01:42:46.652Z,6.43
2019-03-22T01:45:16.750Z,6.53
2019-03-22T01:47:46.964Z,6.83
2019-03-22T01:50:17.060Z,6.67
2019-03-22T01:52:47.178Z,6.33
2019-03-22T01:55:17.564Z,5.87
2019-03-22T01:57:53.460Z,6.87
2019-03-22T02:00:19.963Z,6.73
2019-03-22T02:02:50.153Z,6.47
2019-03-22T02:05:20.423Z,6.40
2019-03-22T02:07:50.859Z,6.00
2019-03-22T02:10:21.333Z,6.00
2019-03-22T02:12:51.473Z,6.13
2019-03-22T02:15:21.612Z,6.07
2019-03-22T02:17:51.765Z,6.43
2019-03-22T02:20:21.915Z,5.70
2019-03-22T02:22:52.097Z,6.27
2019-03-22T02:25:22.158Z,6.63
2019-03-22T02:28:03.497Z,6.17
2019-03-22T02:30:24.282Z,6.50
2019-03-22T02:32:54.411Z,6.47
2019-03-22T02:35:28.909Z,6.30
2019-03-22T02:37:56.391Z,6.67
2019-03-22T02:40:26.550Z,6.63
2019-03-22T02:42:56.831Z,6.53
2019-03-22T02:45:26.901Z,6.97
2019-03-22T02:48:16.085Z,6.30
2019-03-22T02:51:04.858Z,6.30
2019-03-22T02:53:35.432Z,6.60
2019-03-22T02:56:06.107Z,6.20
2019-03-22T02:58:36.297Z,6.47
2019-03-22T03:01:06.449Z,7.27
2019-03-22T03:03:36.562Z,6.67
2019-03-22T03:06:06.758Z,6.77
2019-03-22T03:08:36.903Z,6.27
2019-03-22T03:11:07.057Z,6.87
2019-03-22T03:13:37.204Z,6.47
2019-03-22T03:16:07.730Z,6.73
2019-03-22T03:18:38.209Z,6.83
2019-03-22T03:21:08.365Z,6.70
2019-03-22T03:23:38.822Z,7.07
2019-03-22T03:26:08.959Z,6.37
2019-03-22T03:28:39.041Z,7.00
2019-03-22T03:31:09.180Z,6.60
2019-03-22T03:33:39.242Z,6.83
2019-03-22T03:36:09.328Z,6.83
2019-03-22T03:38:39.481Z,6.03
2019-03-22T03:41:09.847Z,6.33
2019-03-22T03:43:40.318Z,6.17
2019-03-22T03:46:10.459Z,6.40
2019-03-22T03:48:40.613Z,7.10
2019-03-22T03:51:10.753Z,6.77
2019-03-22T03:53:40.882Z,6.40
2019-03-22T03:56:10.928Z,7.37
2019-03-22T03:58:52.287Z,7.00
2019-03-22T04:01:12.934Z,6.73
2019-03-22T04:03:43.089Z,6.90
2019-03-22T04:06:13.613Z,6.50
2019-03-22T04:08:43.817Z,6.30
2019-03-22T04:11:13.960Z,6.57
2019-03-22T04:13:44.041Z,6.83
2019-03-22T04:16:14.189Z,6.90
2019-03-22T04:18:44.288Z,6.53
2019-03-22T04:21:14.438Z,6.70
2019-03-22T04:23:44.662Z,7.00
2019-03-22T04:26:15.013Z,6.13
2019-03-22T04:28:45.197Z,7.03
2019-03-22T04:31:15.389Z,6.93
2019-03-22T04:33:45.454Z,5.63
2019-03-22T04:36:15.675Z,7.27
2019-03-22T04:38:45.877Z,6.27
2019-03-22T04:41:16.300Z,6.63
2019-03-22T04:43:46.450Z,6.40
2019-03-22T04:46:16.626Z,7.03
2019-03-22T04:48:47.035Z,6.23
2019-03-22T04:51:17.291Z,6.80
2019-03-22T04:53:51.451Z,6.17
2019-03-22T04:56:21.599Z,6.80
2019-03-22T04:58:51.662Z,6.47
2019-03-22T05:01:22.048Z,6.37
2019-03-22T05:03:52.754Z,6.30
2019-03-22T05:06:22.928Z,6.17
2019-03-22T05:08:53.078Z,6.67
2019-03-22T05:11:23.154Z,6.17
2019-03-22T05:13:53.226Z,6.57
2019-03-22T05:16:23.408Z,6.97
2019-03-22T05:18:53.583Z,6.80
2019-03-22T05:21:24.746Z,6.67
2019-03-22T05:23:54.935Z,6.30
2019-03-22T05:26:25.015Z,6.80
2019-03-22T05:28:55.173Z,6.43
2019-03-22T05:32:09.209Z,6.90
2019-03-22T05:34:39.893Z,6.73
2019-03-22T05:37:09.983Z,5.90
2019-03-22T05:39:40.077Z,6.23
2019-03-22T05:42:10.189Z,6.00
2019-03-22T05:44:40.235Z,6.63
2019-03-22T05:47:10.377Z,6.30
2019-03-22T05:49:40.847Z,6.10
2019-03-22T05:52:11.026Z,5.67
2019-03-22T05:54:41.170Z,6.37
2019-03-22T05:57:13.699Z,6.00
2019-03-22T05:59:43.551Z,6.50
2019-03-22T06:02:13.817Z,6.43
2019-03-22T06:04:43.920Z,6.30
2019-03-22T06:07:13.990Z,5.80
2019-03-22T06:09:44.154Z,5.47
2019-03-22T06:12:14.272Z,6.23
2019-03-22T06:14:44.935Z,5.80
2019-03-22T06:17:15.008Z,7.03
2019-03-22T06:19:45.168Z,7.07
2019-03-22T06:22:15.271Z,6.70
2019-03-22T06:24:45.463Z,6.57
2019-03-22T06:27:15.667Z,6.80
2019-03-22T06:29:54.081Z,6.33
2019-03-22T06:32:17.559Z,6.90
2019-03-22T06:34:47.732Z,6.80
2019-03-22T06:37:17.812Z,6.80
2019-03-22T06:39:47.988Z,6.60
2019-03-22T06:42:18.357Z,6.20
2019-03-22T06:44:48.823Z,6.40
2019-03-22T06:47:19.050Z,6.20
2019-03-22T06:49:49.552Z,5.63
2019-03-22T06:52:19.705Z,5.70
2019-03-22T06:54:49.894Z,6.00
2019-03-22T06:57:20.054Z,5.43
2019-03-22T06:59:50.480Z,5.43
2019-03-22T07:02:20.552Z,5.40
2019-03-22T07:04:50.997Z,5.43
2019-03-22T07:07:21.099Z,5.57
2019-03-22T07:09:51.260Z,5.20
2019-03-22T07:12:21.329Z,5.10
2019-03-22T07:14:51.406Z,4.80
2019-03-22T07:17:21.561Z,5.03
2019-03-22T07:19:51.646Z,4.70
2019-03-22T07:22:21.785Z,5.13
2019-03-22T07:24:51.926Z,5.27
2019-03-22T07:27:22.007Z,5.27
2019-03-22T07:29:52.070Z,4.20
2019-03-22T07:32:22.569Z,4.97
2019-03-22T07:34:52.663Z,4.50
2019-03-22T07:37:22.904Z,4.50
2019-03-22T07:39:52.990Z,5.40
2019-03-22T07:42:23.471Z,4.43
2019-03-22T07:44:53.707Z,4.37
2019-03-22T07:47:23.805Z,4.17
2019-03-22T07:49:53.949Z,4.53
2019-03-22T07:52:24.035Z,4.53
2019-03-22T07:54:54.177Z,4.43
2019-03-22T07:57:24.347Z,4.33
2019-03-22T07:59:54.450Z,4.67
2019-03-22T08:02:25.769Z,4.47
2019-03-22T08:04:55.961Z,3.73
2019-03-22T08:07:26.041Z,4.40
2019-03-22T08:09:56.350Z,4.47
2019-03-22T08:12:26.664Z,3.87
2019-03-22T08:14:56.854Z,4.57
2019-03-22T08:17:26.965Z,4.13
2019-03-22T08:19:57.424Z,4.60
2019-03-22T08:22:27.743Z,4.03
2019-03-22T08:24:57.916Z,4.20
2019-03-22T08:27:28.400Z,3.83
2019-03-22T08:29:58.583Z,3.80
2019-03-22T08:32:28.991Z,3.97
2019-03-22T08:34:59.151Z,4.30
2019-03-22T08:37:29.232Z,4.40
2019-03-22T08:39:59.674Z,4.40
2019-03-22T08:42:29.820Z,4.13
2019-03-22T08:44:59.867Z,4.30
2019-03-22T08:47:34.350Z,4.30
2019-03-22T08:50:01.848Z,4.47
2019-03-22T08:52:32.307Z,5.13
2019-03-22T08:55:02.523Z,4.63
2019-03-22T08:57:32.930Z,4.43
2019-03-22T09:00:03.072Z,5.00
2019-03-22T09:02:33.218Z,4.40
2019-03-22T09:05:03.390Z,5.20
2019-03-22T09:07:33.587Z,4.57
2019-03-22T09:10:03.750Z,5.07
2019-03-22T09:12:34.659Z,4.90
2019-03-22T09:15:05.110Z,5.03
2019-03-22T09:17:35.948Z,4.80
2019-03-22T09:20:06.406Z,5.40
2019-03-22T09:22:36.583Z,5.77
2019-03-22T09:25:06.830Z,6.10
2019-03-22T09:27:37.003Z,6.07
2019-03-22T09:30:07.924Z,6.80
2019-03-22T09:32:38.480Z,6.37
2019-03-22T09:35:08.646Z,6.63
2019-03-22T09:37:39.211Z,6.80
2019-03-22T09:40:09.277Z,6.77
2019-03-22T09:42:39.680Z,6.07
2019-03-22T09:45:09.839Z,6.30
2019-03-22T09:47:39.937Z,6.90
2019-03-22T09:50:10.214Z,6.97
2019-03-22T09:52:40.426Z,7.47
2019-03-22T09:55:13.718Z,8.47
2019-03-22T09:57:42.340Z,7.67
2019-03-22T10:00:14.117Z,7.77
2019-03-22T10:02:44.227Z,8.23
2019-03-22T10:05:14.381Z,8.03
2019-03-22T10:07:44.541Z,7.37
2019-03-22T10:10:14.744Z,7.67
2019-03-22T10:12:44.955Z,8.30
2019-03-22T10:15:33.140Z,8.30
2019-03-22T10:18:03.596Z,7.80
2019-03-22T10:20:34.073Z,9.60
2019-03-22T10:23:04.184Z,9.60
2019-03-22T10:25:34.387Z,10.67
2019-03-22T10:28:04.472Z,18.40
2019-03-22T10:30:34.851Z,15.40
2019-03-22T10:33:05.135Z,17.37
2019-03-22T10:35:35.279Z,16.93
2019-03-22T10:38:14.381Z,16.53
2019-03-22T10:40:37.345Z,15.07
2019-03-22T10:43:07.465Z,17.50
2019-03-22T10:45:37.609Z,17.13
2019-03-22T10:48:07.742Z,15.90
2019-03-22T10:50:37.840Z,16.77
2019-03-22T10:53:08.049Z,16.47
2019-03-22T10:55:38.200Z,16.03
2019-03-22T10:58:20.341Z,16.40
2019-03-22T11:00:40.307Z,15.77
2019-03-22T11:03:10.792Z,16.30
2019-03-22T11:05:40.994Z,18.27
2019-03-22T11:08:11.079Z,17.77
2019-03-22T11:10:41.198Z,19.03
2019-03-22T11:13:11.354Z,19.10
2019-03-22T11:15:48.522Z,20.00
2019-03-22T11:18:13.304Z,19.53
2019-03-22T11:20:45.680Z,18.37
2019-03-22T11:23:15.595Z,20.63
2019-03-22T11:25:45.765Z,20.10
2019-03-22T11:28:15.862Z,19.93
2019-03-22T11:30:46.105Z,19.77
2019-03-22T11:33:16.274Z,21.60
2019-03-22T11:35:46.520Z,20.80
2019-03-22T11:38:17.522Z,20.17
2019-03-22T11:40:47.828Z,21.57
2019-03-22T11:43:18.262Z,20.63
2019-03-22T11:45:48.402Z,21.13
2019-03-22T11:48:18.592Z,20.73
2019-03-22T11:50:49.137Z,22.43
2019-03-22T11:53:19.222Z,21.00
2019-03-22T11:55:49.497Z,21.50
2019-03-22T11:58:19.875Z,22.80
2019-03-22T12:00:49.979Z,22.27
2019-03-22T12:03:20.061Z,22.10
2019-03-22T12:05:50.516Z,20.37
2019-03-22T12:08:20.596Z,21.83
2019-03-22T12:10:50.697Z,22.10
2019-03-22T12:13:20.802Z,21.77
2019-03-22T12:15:50.876Z,22.10
2019-03-22T12:18:21.657Z,20.23
2019-03-22T12:20:51.759Z,22.13
2019-03-22T12:23:21.848Z,21.60
2019-03-22T12:25:52.123Z,19.70
2019-03-22T12:28:22.778Z,22.73
2019-03-22T12:30:52.849Z,21.43
2019-03-22T12:33:22.954Z,20.40
2019-03-22T12:35:53.046Z,20.23
2019-03-22T12:38:23.229Z,21.97
2019-03-22T12:40:53.682Z,20.47
2019-03-22T12:43:23.847Z,21.73
2019-03-22T12:45:53.943Z,20.23
2019-03-22T12:48:24.373Z,19.97
2019-03-22T12:50:55.160Z,21.00
2019-03-22T12:53:25.312Z,19.50
2019-03-22T12:55:55.752Z,19.30
2019-03-22T12:58:26.233Z,21.23
2019-03-22T13:00:56.431Z,19.97
2019-03-22T13:03:26.790Z,19.73
2019-03-22T13:05:56.939Z,18.23
2019-03-22T13:08:27.110Z,19.63
2019-03-22T13:10:57.207Z,18.47
2019-03-22T13:13:27.301Z,18.37
2019-03-22T13:15:57.455Z,17.37
2019-03-22T13:18:27.628Z,19.50
2019-03-22T13:20:57.741Z,17.67
2019-03-22T13:23:27.827Z,19.00
2019-03-22T13:25:58.024Z,18.53
2019-03-22T13:28:28.213Z,18.13
2019-03-22T13:30:58.326Z,17.53
2019-03-22T13:33:28.424Z,16.20
2019-03-22T13:35:58.609Z,16.57
2019-03-22T13:38:28.738Z,16.43
2019-03-22T13:40:58.914Z,17.80
2019-03-22T13:43:29.116Z,18.23
2019-03-22T13:45:59.289Z,16.43
2019-03-22T13:48:29.690Z,15.53
2019-03-22T13:50:59.886Z,16.67
2019-03-22T13:53:29.975Z,15.77
2019-03-22T13:56:00.844Z,15.23
2019-03-22T13:58:30.935Z,15.37
2019-03-22T14:01:01.018Z,14.37
2019-03-22T14:03:33.124Z,16.00
2019-03-22T14:06:03.132Z,14.80
2019-03-22T14:08:33.224Z,14.80
2019-03-22T14:11:03.302Z,15.23
2019-03-22T14:13:33.397Z,14.90
2019-03-22T14:16:03.763Z,14.53
2019-03-22T14:18:33.920Z,14.13
2019-03-22T14:21:04.088Z,14.83
2019-03-22T14:23:34.600Z,13.83
2019-03-22T14:26:04.896Z,13.10
2019-03-22T14:28:35.035Z,14.67
2019-03-22T14:31:05.132Z,14.73
2019-03-22T14:33:35.200Z,13.37
2019-03-22T14:36:05.325Z,13.47
2019-03-22T14:38:35.411Z,13.03
2019-03-22T14:41:05.511Z,12.47
2019-03-22T14:43:35.597Z,12.50
2019-03-22T14:46:05.747Z,12.17
2019-03-22T14:48:35.832Z,12.00
2019-03-22T14:51:05.930Z,12.40
2019-03-22T14:53:36.028Z,12.13
2019-03-22T14:56:06.101Z,12.37
2019-03-22T14:58:36.174Z,12.07
2019-03-22T15:01:06.511Z,11.87
2019-03-22T15:03:36.844Z,12.37
2019-03-22T15:06:06.965Z,11.07
2019-03-22T15:08:37.042Z,11.67
2019-03-22T15:11:07.225Z,11.83
2019-03-22T15:13:46.275Z,11.63
2019-03-22T15:16:44.416Z,11.33
2019-03-22T15:19:31.585Z,11.77
2019-03-22T15:22:20.664Z,12.20
2019-03-22T15:25:08.421Z,11.87
2019-03-22T15:27:57.606Z,12.03
2019-03-22T15:30:45.357Z,12.10
2019-03-22T15:33:34.184Z,12.43
2019-03-22T15:38:59.770Z,11.63
2019-03-22T15:41:30.266Z,11.53
2019-03-22T15:44:00.387Z,11.97
2019-03-22T15:46:30.697Z,11.57
2019-03-22T15:49:00.781Z,11.30
2019-03-22T15:51:30.982Z,12.00
2019-03-22T15:54:01.085Z,12.93
2019-03-22T15:56:31.189Z,11.63
2019-03-22T15:59:01.532Z,12.63
2019-03-22T16:01:31.597Z,11.80
2019-03-22T16:04:01.720Z,12.63
2019-03-22T16:06:31.797Z,12.03
2019-03-22T16:09:01.872Z,11.50
2019-03-22T16:11:31.990Z,12.10
2019-03-22T16:14:02.069Z,12.70
2019-03-22T16:16:32.170Z,12.60
2019-03-22T16:19:02.278Z,13.03
2019-03-22T16:21:32.385Z,12.30
2019-03-22T16:24:02.504Z,14.20
2019-03-22T16:26:32.644Z,14.30
2019-03-22T16:29:02.868Z,14.77
2019-03-22T16:31:33.187Z,14.23
2019-03-22T16:34:03.276Z,15.23
2019-03-22T16:36:33.875Z,15.27
2019-03-22T16:39:05.264Z,15.20
2019-03-22T16:41:35.399Z,16.90
2019-03-22T16:44:05.595Z,23.80
2019-03-22T16:46:35.787Z,20.83
2019-03-22T16:49:05.998Z,22.33
2019-03-22T16:51:36.409Z,21.63
2019-03-22T16:54:06.664Z,22.50
2019-03-22T16:56:37.443Z,23.20
2019-03-22T16:59:07.978Z,24.30
2019-03-22T17:01:38.163Z,23.57
2019-03-22T17:04:08.280Z,23.80
2019-03-22T17:06:38.744Z,23.90
2019-03-22T17:09:08.835Z,23.57
2019-03-22T17:11:39.016Z,22.00
2019-03-22T17:14:09.184Z,23.53
2019-03-22T17:16:39.299Z,23.87
2019-03-22T17:19:09.687Z,24.47
2019-03-22T17:21:39.889Z,24.57
2019-03-22T17:24:10.250Z,25.47
2019-03-22T17:26:40.448Z,24.83
2019-03-22T17:29:10.547Z,24.60
2019-03-22T17:31:40.724Z,23.70
2019-03-22T17:34:14.427Z,25.80
2019-03-22T17:36:42.706Z,23.83
2019-03-22T17:39:12.800Z,23.47
2019-03-22T17:41:43.027Z,23.63
2019-03-22T17:44:13.601Z,23.13
2019-03-22T17:46:43.731Z,25.57
2019-03-22T17:49:14.163Z,22.67
2019-03-22T17:51:44.247Z,24.00
2019-03-22T17:54:14.340Z,23.17
2019-03-22T17:56:44.520Z,22.53
2019-03-22T17:59:15.084Z,22.63
2019-03-22T18:01:45.555Z,23.23
2019-03-22T18:04:23.824Z,23.43
2019-03-22T18:06:47.706Z,22.30
2019-03-22T18:09:17.795Z,21.47
2019-03-22T18:11:48.210Z,22.23
2019-03-22T18:14:18.399Z,22.77
2019-03-22T18:16:48.558Z,20.97
2019-03-22T18:19:19.760Z,22.47
2019-03-22T18:21:49.858Z,21.80
2019-03-22T18:24:19.962Z,20.67
2019-03-22T18:26:50.090Z,21.20
2019-03-22T18:29:20.228Z,22.33
2019-03-22T18:31:50.319Z,21.30
2019-03-22T18:34:20.436Z,20.27
2019-03-22T18:36:50.533Z,21.93
2019-03-22T18:39:20.629Z,21.03
2019-03-22T18:41:50.754Z,22.60
2019-03-22T18:44:20.925Z,20.73
2019-03-22T18:46:51.090Z,22.40
2019-03-22T18:49:21.301Z,21.47
2019-03-22T18:51:51.461Z,22.03
2019-03-22T18:54:21.647Z,21.23
2019-03-22T18:56:51.768Z,20.73
2019-03-22T18:59:21.864Z,22.93
2019-03-22T19:01:52.204Z,21.03
2019-03-22T19:04:22.687Z,22.30
2019-03-22T19:06:52.884Z,21.70
2019-03-22T19:09:23.662Z,22.23
2019-03-22T19:11:53.965Z,22.00
2019-03-22T19:14:24.929Z,21.97
2019-03-22T19:16:55.089Z,21.77
2019-03-22T19:19:25.235Z,22.73
2019-03-22T19:21:55.795Z,23.93
2019-03-22T19:24:25.997Z,20.13
2019-03-22T19:26:56.095Z,22.00
2019-03-22T19:29:26.187Z,23.10
2019-03-22T19:31:56.479Z,22.63
2019-03-22T19:34:26.726Z,21.53
2019-03-22T19:36:56.843Z,21.10
2019-03-22T19:39:27.139Z,22.07
2019-03-22T19:41:57.267Z,21.87
2019-03-22T19:44:27.954Z,22.90
2019-03-22T19:46:58.366Z,21.43
2019-03-22T19:49:28.531Z,20.67
2019-03-22T19:51:58.642Z,20.00
2019-03-22T19:54:28.806Z,19.80
2019-03-22T19:56:58.887Z,20.63
2019-03-22T19:59:29.207Z,19.33
2019-03-22T20:01:59.386Z,19.60
2019-03-22T20:04:29.597Z,20.43
2019-03-22T20:06:59.781Z,19.07
2019-03-22T20:09:29.958Z,20.57
2019-03-22T20:12:01.997Z,18.50
2019-03-22T20:14:32.383Z,19.33
2019-03-22T20:17:02.510Z,20.43
2019-03-22T20:19:32.649Z,20.20
2019-03-22T20:22:02.999Z,20.80
2019-03-22T20:24:33.408Z,19.90
2019-03-22T20:27:03.637Z,20.50
2019-03-22T20:29:33.754Z,21.27
2019-03-22T20:32:03.855Z,20.93
2019-03-22T20:34:33.947Z,20.17
2019-03-22T20:37:04.473Z,19.67
2019-03-22T20:39:34.574Z,19.53
2019-03-22T20:42:04.755Z,19.67
2019-03-22T20:44:35.089Z,19.20
2019-03-22T20:47:05.323Z,18.33
2019-03-22T20:49:35.434Z,18.53
2019-03-22T20:52:05.620Z,19.70
2019-03-22T20:54:35.705Z,18.63
2019-03-22T20:57:06.264Z,19.13
2019-03-22T20:59:36.428Z,17.87
2019-03-22T21:02:06.553Z,21.40
2019-03-22T21:04:36.753Z,19.20
2019-03-22T21:07:07.169Z,19.80
2019-03-22T21:09:37.307Z,19.70
2019-03-22T21:12:07.835Z,19.43
2019-03-22T21:14:38.036Z,19.47
2019-03-22T21:17:08.274Z,19.27
2019-03-22T21:19:38.529Z,18.53
2019-03-22T21:22:08.701Z,19.80
2019-03-22T21:24:38.872Z,18.87
2019-03-22T21:27:15.524Z,17.87
2019-03-22T21:29:44.506Z,17.80
2019-03-22T21:32:13.805Z,17.87
2019-03-22T21:34:44.405Z,17.67
2019-03-22T21:37:14.585Z,16.87
2019-03-22T21:39:44.770Z,18.33
2019-03-22T21:42:15.297Z,16.90
2019-03-22T21:44:45.826Z,17.83
2019-03-22T21:47:15.997Z,19.00
2019-03-22T21:49:46.095Z,16.53
2019-03-22T21:52:16.214Z,16.73
2019-03-22T21:54:46.390Z,17.57
2019-03-22T21:57:16.563Z,16.67
2019-03-22T21:59:46.741Z,16.10
2019-03-22T22:02:17.285Z,17.63
2019-03-22T22:04:47.465Z,16.53
2019-03-22T22:07:17.636Z,16.77
2019-03-22T22:09:47.806Z,17.07
2019-03-22T22:12:17.977Z,16.23
2019-03-22T22:14:48.142Z,16.27
2019-03-22T22:17:18.477Z,15.67
2019-03-22T22:19:48.652Z,14.77
2019-03-22T22:22:19.083Z,15.80
2019-03-22T22:24:49.188Z,15.87
2019-03-22T22:27:19.399Z,17.47
2019-03-22T22:29:49.853Z,18.73
2019-03-22T22:32:20.012Z,18.27
2019-03-22T22:34:50.489Z,18.40
2019-03-22T22:37:23.573Z,17.40
2019-03-22T22:39:54.201Z,18.27
2019-03-22T22:42:24.396Z,16.43
2019-03-22T22:44:54.583Z,18.53
2019-03-22T22:47:24.898Z,17.03
2019-03-22T22:49:55.036Z,16.37
2019-03-22T22:52:25.148Z,16.57
2019-03-22T22:54:55.664Z,16.30
2019-03-22T22:57:25.754Z,16.83
2019-03-22T22:59:56.286Z,16.97
2019-03-22T23:02:26.579Z,16.57
2019-03-22T23:04:56.738Z,15.50
2019-03-22T23:07:26.968Z,15.00
2019-03-22T23:09:57.806Z,14.80
2019-03-22T23:12:27.973Z,14.53
2019-03-22T23:14:58.173Z,14.23
2019-03-22T23:17:28.343Z,14.33
2019-03-22T23:19:58.452Z,13.20
2019-03-22T23:22:28.551Z,13.90
2019-03-22T23:24:58.740Z,13.37
2019-03-22T23:27:29.648Z,14.13
2019-03-22T23:29:59.722Z,13.10
2019-03-22T23:32:29.828Z,12.50
2019-03-22T23:34:59.914Z,12.93
2019-03-22T23:37:30.000Z,12.13
2019-03-22T23:40:00.070Z,12.70
2019-03-22T23:42:30.282Z,12.10
2019-03-22T23:45:00.487Z,11.70
2019-03-22T23:47:30.574Z,11.80
2019-03-22T23:50:00.765Z,11.87
2019-03-22T23:52:30.946Z,12.07
2019-03-22T23:55:01.043Z,11.47
2019-03-22T23:57:31.227Z,11.33
